Time;durP1;ratioP1;P1;durP2;ratioP2;P2;SDS_P1;SDS_P2;PMS_P1;PMS_P2;Temp;Humidity;BMP_temperature;BMP_pressure;BME280_temperature;BME280_humidity;BME280_pressure;Samples;Min_cycle;Max_cycle;Signal;HPM_P1;HPM_P2
2022/08/06 00:02:28;;;;;;;7.22;1.88;;;42.10;36.10;;;;;;4970909;28;20393;-64
2022/08/06 00:04:55;;;;;;;5.30;1.80;;;42.20;35.20;;;;;;4937941;28;20106;-63
2022/08/06 00:07:22;;;;;;;12.70;1.65;;;42.00;35.80;;;;;;4952481;28;20130;-60
2022/08/06 00:09:49;;;;;;;8.88;1.65;;;42.00;35.50;;;;;;4952572;28;20023;-60
2022/08/06 00:12:15;;;;;;;8.68;1.67;;;42.00;35.90;;;;;;4951829;28;20407;-61
2022/08/06 00:14:42;;;;;;;11.40;2.20;;;42.00;35.90;;;;;;4951713;28;20140;-62
2022/08/06 00:17:08;;;;;;;10.82;2.20;;;41.90;35.80;;;;;;4970087;28;20037;-59
2022/08/06 00:19:34;;;;;;;15.52;2.03;;;41.80;36.20;;;;;;4969751;28;20036;-59
2022/08/06 00:22:01;;;;;;;8.10;1.88;;;41.80;36.90;;;;;;4973415;28;20389;-61
2022/08/06 00:24:27;;;;;;;7.40;2.05;;;41.80;36.70;;;;;;4956118;28;20046;-59
2022/08/06 00:26:53;;;;;;;4.93;1.70;;;41.70;36.10;;;;;;4938553;28;20042;-61
2022/08/06 00:29:20;;;;;;;6.60;1.50;;;41.20;36.40;;;;;;4952829;28;20043;-58
2022/08/06 00:31:46;;;;;;;8.27;1.52;;;41.70;48.50;;;;;;4955662;28;20123;-60
2022/08/06 00:34:13;;;;;;;8.00;1.73;;;41.40;49.60;;;;;;4954774;28;20046;-61
2022/08/06 00:36:39;;;;;;;11.45;1.80;;;41.60;36.10;;;;;;4955373;28;20027;-62
2022/08/06 00:39:07;;;;;;;5.38;1.88;;;41.50;42.10;;;;;;4955556;28;20029;-60
2022/08/06 00:41:34;;;;;;;9.38;1.80;;;40.90;57.10;;;;;;4955145;28;20027;-61
2022/08/06 00:44:01;;;;;;;8.10;1.52;;;41.60;45.90;;;;;;4972509;28;20881;-63
2022/08/06 00:46:27;;;;;;;5.72;1.67;;;41.10;54.90;;;;;;4955725;28;20062;-59
2022/08/06 00:48:54;;;;;;;7.13;1.60;;;41.20;57.30;;;;;;4955050;28;20034;-61
2022/08/06 00:51:22;;;;;;;10.40;2.00;;;41.40;48.70;;;;;;4955264;28;20034;-62
2022/08/06 00:53:49;;;;;;;10.13;1.90;;;40.80;60.70;;;;;;4955496;28;20031;-59
2022/08/06 00:56:15;;;;;;;6.20;1.58;;;41.00;50.50;;;;;;4938304;28;20477;-59
2022/08/06 00:58:43;;;;;;;8.68;1.95;;;40.80;58.90;;;;;;4955037;28;20027;-60
2022/08/06 01:01:11;;;;;;;8.27;1.95;;;40.90;59.50;;;;;;4972973;28;20105;-62
2022/08/06 01:03:37;;;;;;;11.15;1.83;;;40.90;55.60;;;;;;4973838;28;20027;-60
2022/08/06 01:06:04;;;;;;;11.15;1.95;;;40.90;60.60;;;;;;4954975;28;20564;-60
2022/08/06 01:08:31;;;;;;;12.13;1.92;;;40.90;38.90;;;;;;4939402;28;20035;-59
2022/08/06 01:10:57;;;;;;;11.02;2.03;;;40.30;46.50;;;;;;4971946;28;20027;-58
2022/08/06 01:13:23;;;;;;;11.18;2.10;;;40.40;55.60;;;;;;4972418;28;20126;-60
2022/08/06 01:16:02;;;;;;;7.30;1.90;;;41.00;37.30;;;;;;4955142;28;20031;-59
2022/08/06 01:18:34;;;;;;;8.55;1.98;;;40.70;37.80;;;;;;4956390;28;20476;-59
2022/08/06 01:21:30;;;;;;;9.50;1.95;;;40.20;48.40;;;;;;4955399;28;20429;-58
2022/08/06 01:24:19;;;;;;;7.63;1.48;;;40.60;37.00;;;;;;4955060;28;20127;-60
2022/08/06 01:27:13;;;;;;;12.23;2.53;;;40.20;52.40;;;;;;4956672;28;20354;-61
2022/08/06 01:29:44;;;;;;;10.05;1.88;;;40.40;37.20;;;;;;4952415;28;20114;-59
2022/08/06 01:32:17;;;;;;;11.57;1.83;;;40.00;59.80;;;;;;4969766;28;20030;-60
2022/08/06 01:34:58;;;;;;;6.93;2.47;;;39.70;61.60;;;;;;4938744;28;20833;-59
2022/08/06 01:38:00;;;;;;;7.50;2.17;;;39.70;61.50;;;;;;4972077;28;20085;-59
2022/08/06 01:40:31;;;;;;;8.27;2.00;;;40.10;38.00;;;;;;4953862;28;20035;-59
2022/08/06 01:42:59;;;;;;;12.10;3.30;;;40.00;45.20;;;;;;4970538;28;20113;-59
2022/08/06 01:45:31;;;;;;;7.82;2.40;;;40.60;61.10;;;;;;4959421;28;20118;-60
2022/08/06 01:48:02;;;;;;;10.23;1.88;;;40.20;38.30;;;;;;4940100;28;20030;-60
2022/08/06 01:50:42;;;;;;;6.00;1.73;;;40.60;56.20;;;;;;4972002;28;20027;-61
2022/08/06 01:53:14;;;;;;;12.57;1.83;;;40.00;38.70;;;;;;4938416;28;20026;-62
2022/08/06 01:55:45;;;;;;;15.15;1.98;;;39.80;38.20;;;;;;4954012;28;20027;-61
2022/08/06 01:58:15;;;;;;;8.13;1.85;;;39.60;47.70;;;;;;4972305;28;20034;-60
2022/08/06 02:00:46;;;;;;;11.50;1.80;;;39.70;48.10;;;;;;4972699;28;20023;-61
2022/08/06 02:03:24;;;;;;;17.92;2.60;;;39.70;58.20;;;;;;4954847;28;20374;-63
2022/08/06 02:05:53;;;;;;;11.02;1.98;;;39.60;52.20;;;;;;4939247;28;20039;-61
2022/08/06 02:08:23;;;;;;;10.88;1.83;;;39.60;38.60;;;;;;4951662;28;20157;-62
2022/08/06 02:10:52;;;;;;;5.28;1.60;;;39.20;38.10;;;;;;4971328;28;20042;-61
2022/08/06 02:13:22;;;;;;;7.35;2.00;;;39.20;38.40;;;;;;4952774;28;20073;-62
2022/08/06 02:15:50;;;;;;;6.53;1.80;;;39.10;56.20;;;;;;4953401;28;20019;-62
2022/08/06 02:18:19;;;;;;;8.50;1.73;;;39.10;39.30;;;;;;4952522;28;20448;-62
2022/08/06 02:20:49;;;;;;;9.15;1.70;;;38.90;38.80;;;;;;4953065;28;20078;-62
2022/08/06 02:23:19;;;;;;;6.00;1.63;;;39.00;39.50;;;;;;4954773;28;20086;-61
2022/08/06 02:25:48;;;;;;;6.18;1.50;;;38.90;51.50;;;;;;4939733;28;20062;-61
2022/08/06 02:28:18;;;;;;;5.68;1.63;;;38.90;58.30;;;;;;4939245;28;20037;-62
2022/08/06 02:30:47;;;;;;;9.00;1.70;;;38.60;39.00;;;;;;4974119;28;20023;-62
2022/08/06 02:33:14;;;;;;;8.93;1.50;;;38.60;39.10;;;;;;4940072;28;20151;-61
2022/08/06 02:35:58;;;;;;;15.25;1.85;;;38.50;48.10;;;;;;4938083;28;20111;-62
2022/08/06 02:38:27;;;;;;;6.55;1.88;;;38.50;39.70;;;;;;4971157;28;20031;-59
2022/08/06 02:41:00;;;;;;;6.18;1.70;;;38.40;39.50;;;;;;4953690;28;20050;-60
2022/08/06 02:43:37;;;;;;;7.53;1.63;;;38.40;39.70;;;;;;4938414;28;20055;-60
2022/08/06 02:46:04;;;;;;;13.55;1.70;;;38.30;39.50;;;;;;4954317;28;20056;-61
2022/08/06 02:48:41;;;;;;;9.63;1.83;;;38.20;39.60;;;;;;4954198;28;20142;-61
2022/08/06 02:51:11;;;;;;;7.95;2.08;;;38.10;40.10;;;;;;4970236;28;20065;-61
2022/08/06 02:53:55;;;;;;;11.00;2.13;;;38.20;40.20;;;;;;4955080;28;20093;-61
2022/08/06 02:56:23;;;;;;;8.68;2.17;;;37.80;60.70;;;;;;4938296;28;20034;-61
2022/08/06 02:58:53;;;;;;;8.18;2.53;;;38.10;44.60;;;;;;4954804;28;20117;-61
2022/08/06 03:01:24;;;;;;;11.02;4.03;;;37.90;39.40;;;;;;4953762;28;20062;-60
2022/08/06 03:03:54;;;;;;;9.20;3.72;;;37.40;65.50;;;;;;4954551;28;20030;-60
2022/08/06 03:06:23;;;;;;;12.77;3.72;;;37.80;66.30;;;;;;4953990;28;20038;-60
2022/08/06 03:08:53;;;;;;;9.43;2.05;;;37.70;39.90;;;;;;4954631;28;20484;-61
2022/08/06 03:11:22;;;;;;;10.02;1.88;;;37.00;63.40;;;;;;4953485;28;20395;-61
2022/08/06 03:13:50;;;;;;;7.25;2.08;;;37.40;60.50;;;;;;4953550;28;20041;-61
2022/08/06 03:16:17;;;;;;;13.25;1.95;;;37.70;39.80;;;;;;4968632;28;20023;-61
2022/08/06 03:18:46;;;;;;;7.78;2.10;;;37.20;55.40;;;;;;4938053;28;20031;-61
2022/08/06 03:21:15;;;;;;;10.68;2.00;;;37.60;39.90;;;;;;4938282;28;20106;-61
2022/08/06 03:23:42;;;;;;;11.40;1.80;;;37.50;53.30;;;;;;4955726;28;20022;-60
2022/08/06 03:26:10;;;;;;;16.45;2.08;;;37.50;40.60;;;;;;4954163;28;20448;-62
2022/08/06 03:28:37;;;;;;;16.00;2.15;;;37.20;47.70;;;;;;4954132;28;20065;-61
2022/08/06 03:31:04;;;;;;;10.23;2.33;;;37.50;40.90;;;;;;4972358;28;20035;-60
2022/08/06 03:33:32;;;;;;;5.25;1.60;;;37.00;40.60;;;;;;4953828;28;20080;-60
2022/08/06 03:36:02;;;;;;;7.93;2.00;;;37.50;55.20;;;;;;4937702;28;20057;-61
2022/08/06 03:38:34;;;;;;;7.10;1.75;;;36.90;57.90;;;;;;4958294;28;20448;-62
2022/08/06 03:41:01;;;;;;;15.52;2.05;;;37.70;58.40;;;;;;4940170;28;20037;-61
2022/08/06 03:43:29;;;;;;;9.43;2.15;;;37.30;57.30;;;;;;4953862;28;20033;-61
2022/08/06 03:46:00;;;;;;;10.80;2.05;;;37.70;54.60;;;;;;4937882;28;20085;-61
2022/08/06 03:48:33;;;;;;;16.15;2.60;;;37.20;40.80;;;;;;4960477;28;20052;-63
2022/08/06 03:51:03;;;;;;;12.82;2.38;;;37.10;47.20;;;;;;4952436;28;20078;-60
2022/08/06 03:53:34;;;;;;;11.68;2.00;;;37.20;54.60;;;;;;4949598;28;20087;-61
2022/08/06 03:56:02;;;;;;;13.98;2.20;;;37.20;41.00;;;;;;4951590;28;20040;-61
2022/08/06 03:58:29;;;;;;;18.75;2.30;;;37.10;41.60;;;;;;4954236;28;20062;-64
2022/08/06 04:01:06;;;;;;;13.93;3.58;;;37.30;52.60;;;;;;4953952;28;20113;-61
2022/08/06 04:03:34;;;;;;;22.55;3.15;;;37.10;41.60;;;;;;4953849;28;20437;-60
2022/08/06 04:06:01;;;;;;;13.88;3.17;;;37.10;42.40;;;;;;4937371;28;20138;-61
2022/08/06 04:08:28;;;;;;;30.85;3.55;;;37.10;42.40;;;;;;4937677;28;20055;-60
2022/08/06 04:10:56;;;;;;;19.70;3.13;;;37.10;42.50;;;;;;4964367;28;20088;-61
2022/08/06 04:13:25;;;;;;;16.88;3.28;;;37.10;42.60;;;;;;4952608;28;20540;-60
2022/08/06 04:15:53;;;;;;;15.13;3.33;;;37.00;42.50;;;;;;4970231;28;20064;-60
2022/08/06 04:18:27;;;;;;;16.95;3.53;;;36.90;42.50;;;;;;4937021;28;20266;-61
2022/08/06 04:20:57;;;;;;;20.45;4.30;;;36.90;42.80;;;;;;4937150;28;20060;-61
2022/08/06 04:23:24;;;;;;;20.15;4.72;;;37.30;50.30;;;;;;4952835;28;20158;-61
2022/08/06 04:26:01;;;;;;;23.13;4.97;;;36.70;43.00;;;;;;4968763;28;20147;-60
2022/08/06 04:28:30;;;;;;;29.33;4.25;;;36.70;43.10;;;;;;4937246;28;20080;-61
2022/08/06 04:30:58;;;;;;;19.42;4.25;;;36.70;43.60;;;;;;4953464;28;20068;-60
2022/08/06 04:33:26;;;;;;;17.63;4.35;;;36.70;43.60;;;;;;4952967;28;20144;-56
2022/08/06 04:35:53;;;;;;;22.90;4.20;;;36.70;43.50;;;;;;4952720;28;20061;-58
2022/08/06 04:38:22;;;;;;;18.42;4.57;;;36.70;43.50;;;;;;4953068;28;20051;-58
2022/08/06 04:40:49;;;;;;;14.35;4.07;;;36.70;43.60;;;;;;4952804;28;20059;-57
2022/08/06 04:43:16;;;;;;;19.65;3.88;;;36.70;43.80;;;;;;4936968;28;20067;-58
2022/08/06 04:45:43;;;;;;;28.27;4.30;;;36.60;44.30;;;;;;4936238;28;20162;-58
2022/08/06 04:48:11;;;;;;;16.17;3.67;;;36.60;44.40;;;;;;4952214;28;20069;-61
2022/08/06 04:50:38;;;;;;;17.50;4.43;;;36.60;44.40;;;;;;4936272;28;20123;-58
2022/08/06 04:53:17;;;;;;;22.42;5.03;;;36.50;44.80;;;;;;4969550;28;20076;-58
2022/08/06 04:55:45;;;;;;;21.48;4.07;;;36.50;44.80;;;;;;4952267;28;20089;-60
2022/08/06 04:58:14;;;;;;;30.10;4.68;;;36.40;44.90;;;;;;4952375;28;20089;-59
2022/08/06 05:00:46;;;;;;;35.22;5.25;;;36.40;52.40;;;;;;4953126;28;20539;-59
2022/08/06 05:03:13;;;;;;;25.77;4.88;;;36.40;45.20;;;;;;4973875;28;20073;-61
2022/08/06 05:05:50;;;;;;;19.98;5.00;;;36.30;45.10;;;;;;4969106;28;20055;-60
2022/08/06 05:08:18;;;;;;;15.75;4.63;;;36.30;45.20;;;;;;4955593;28;20069;-60
2022/08/06 05:11:16;;;;;;;28.70;5.10;;;36.20;45.50;;;;;;4940298;28;20066;-60
2022/08/06 05:13:45;;;;;;;23.15;4.47;;;36.30;45.60;;;;;;4951215;28;20126;-60
2022/08/06 05:16:14;;;;;;;27.67;5.88;;;36.20;45.80;;;;;;4955762;28;20067;-58
2022/08/06 05:18:46;;;;;;;23.88;6.22;;;36.10;45.90;;;;;;4958230;28;20072;-60
2022/08/06 05:21:18;;;;;;;25.70;5.95;;;36.20;46.30;;;;;;4956214;28;20112;-58
2022/08/06 05:23:53;;;;;;;24.92;4.68;;;36.10;46.20;;;;;;4955724;28;20442;-58
2022/08/06 05:26:21;;;;;;;21.17;4.35;;;36.10;46.60;;;;;;4955861;28;20161;-58
2022/08/06 05:28:47;;;;;;;25.60;4.68;;;36.10;46.30;;;;;;4973425;28;20142;-59
2022/08/06 05:31:14;;;;;;;24.77;4.85;;;36.10;46.10;;;;;;4955233;28;20521;-60
2022/08/06 05:33:41;;;;;;;17.42;4.22;;;36.00;45.60;;;;;;4973266;28;20068;-58
2022/08/06 05:36:10;;;;;;;18.92;3.70;;;36.10;46.20;;;;;;4955853;28;20066;-59
2022/08/06 05:38:39;;;;;;;17.83;3.00;;;36.00;46.40;;;;;;4940088;28;20107;-59
2022/08/06 05:41:10;;;;;;;10.60;2.75;;;36.10;45.70;;;;;;4937703;28;20524;-59
2022/08/06 05:43:38;;;;;;;13.65;2.63;;;36.00;45.50;;;;;;4972710;28;20115;-58
2022/08/06 05:46:09;;;;;;;10.10;2.17;;;36.00;43.70;;;;;;4939209;28;20069;-57
2022/08/06 05:48:42;;;;;;;15.52;2.50;;;36.10;43.30;;;;;;4955279;28;20081;-58
2022/08/06 05:51:27;;;;;;;11.82;2.63;;;36.20;67.70;;;;;;4955750;28;20523;-59
2022/08/06 05:54:04;;;;;;;7.85;2.65;;;36.10;41.10;;;;;;4967512;28;20031;-61
2022/08/06 05:56:37;;;;;;;12.60;2.75;;;36.10;39.80;;;;;;4938843;28;20049;-60
2022/08/06 05:59:10;;;;;;;8.20;2.88;;;35.80;65.40;;;;;;4963640;28;20518;-58
2022/08/06 06:01:37;;;;;;;6.45;2.95;;;36.00;54.40;;;;;;4956111;28;20038;-57
2022/08/06 06:04:04;;;;;;;13.50;2.83;;;36.50;68.60;;;;;;4969425;28;20027;-62
2022/08/06 06:06:31;;;;;;;11.43;3.28;;;35.70;68.10;;;;;;4971929;28;20031;-60
2022/08/06 06:08:58;;;;;;;11.15;3.63;;;36.00;39.50;;;;;;4953414;28;20031;-65
2022/08/06 06:11:26;;;;;;;13.43;3.08;;;36.00;39.60;;;;;;4952147;28;20172;-64
2022/08/06 06:13:53;;;;;;;11.70;2.60;;;36.00;51.30;;;;;;4952276;28;20090;-62
2022/08/06 06:16:31;;;;;;;6.53;2.83;;;35.90;38.70;;;;;;4936436;28;20053;-65
2022/08/06 06:19:38;;;;;;;17.88;12.05;;;35.90;39.10;;;;;;4935945;28;20419;-60
2022/08/06 06:22:23;;;;;;;7.45;2.53;;;35.80;38.80;;;;;;4952268;28;20059;-63
2022/08/06 06:25:02;;;;;;;11.00;2.33;;;36.00;65.00;;;;;;4953074;28;20038;-64
2022/08/06 06:27:53;;;;;;;10.88;2.60;;;35.90;39.50;;;;;;4970432;28;20397;-62
2022/08/06 06:30:46;;;;;;;9.52;2.10;;;35.50;54.00;;;;;;4967704;28;20051;-61
2022/08/06 06:33:14;;;;;;;6.55;2.78;;;;;;;;;;4954347;28;21568;-61
2022/08/06 06:35:54;;;;;;;9.80;3.45;;;36.10;68.00;;;;;;4970504;28;20492;-61
2022/08/06 06:38:51;;;;;;;12.30;3.35;;;35.60;57.70;;;;;;4955990;28;20512;-61
2022/08/06 06:41:27;;;;;;;17.30;3.28;;;35.70;39.20;;;;;;4953420;28;20121;-62
2022/08/06 06:44:03;;;;;;;9.65;3.47;;;35.60;45.40;;;;;;4970321;28;20527;-61
2022/08/06 06:46:41;;;;;;;14.32;4.30;;;35.60;39.20;;;;;;4954145;28;20039;-60
2022/08/06 06:49:24;;;;;;;9.88;3.20;;;35.50;52.00;;;;;;4953095;28;20146;-62
2022/08/06 06:51:57;;;;;;;12.65;3.03;;;35.60;39.90;;;;;;4953017;28;20070;-62
2022/08/06 06:54:31;;;;;;;14.00;3.22;;;35.60;40.30;;;;;;4938061;28;20053;-62
2022/08/06 06:57:00;;;;;;;10.73;2.33;;;35.40;52.10;;;;;;4953093;28;20089;-62
2022/08/06 06:59:40;;;;;;;8.13;2.25;;;35.40;39.80;;;;;;4937933;28;20072;-62
2022/08/06 07:02:11;;;;;;;13.98;2.45;;;35.30;51.90;;;;;;4952756;28;20067;-61
2022/08/06 07:04:39;;;;;;;8.48;2.20;;;35.30;40.00;;;;;;4954128;28;20059;-61
2022/08/06 07:07:06;;;;;;;8.45;2.00;;;35.20;41.20;;;;;;4961494;28;20141;-60
2022/08/06 07:09:34;;;;;;;10.60;2.30;;;35.20;40.70;;;;;;4953524;28;20108;-63
2022/08/06 07:12:02;;;;;;;9.88;2.10;;;35.20;40.30;;;;;;4953050;28;20075;-61
2022/08/06 07:14:30;;;;;;;8.55;2.55;;;35.20;41.00;;;;;;4953174;28;20097;-62
2022/08/06 07:16:59;;;;;;;11.25;2.38;;;35.20;41.50;;;;;;4953431;28;20056;-62
2022/08/06 07:19:26;;;;;;;9.32;2.75;;;35.10;41.00;;;;;;4956200;28;20084;-61
2022/08/06 07:21:52;;;;;;;11.07;3.22;;;35.10;41.00;;;;;;4953270;28;20123;-62
2022/08/06 07:24:21;;;;;;;10.30;3.35;;;35.10;41.10;;;;;;4952036;28;20403;-62
2022/08/06 07:26:50;;;;;;;9.07;3.20;;;35.10;41.50;;;;;;4952572;28;20056;-62
2022/08/06 07:29:17;;;;;;;12.27;2.72;;;35.10;41.40;;;;;;4936618;28;20059;-62
2022/08/06 07:31:46;;;;;;;14.43;3.25;;;35.00;54.00;;;;;;4952485;28;20140;-63
2022/08/06 07:34:14;;;;;;;9.95;2.95;;;35.00;54.10;;;;;;4972269;28;20053;-62
2022/08/06 07:36:46;;;;;;;9.60;2.40;;;35.00;42.00;;;;;;4937443;28;20118;-62
2022/08/06 07:39:21;;;;;;;12.57;3.00;;;35.00;42.20;;;;;;4953030;28;20130;-62
2022/08/06 07:41:49;;;;;;;10.93;2.72;;;35.00;42.50;;;;;;4936213;28;20052;-64
2022/08/06 07:44:16;;;;;;;6.22;2.10;;;34.90;42.50;;;;;;4952707;28;20083;-61
2022/08/06 07:46:49;;;;;;;7.80;2.08;;;34.90;42.10;;;;;;4936801;28;20164;-64
2022/08/06 07:49:19;;;;;;;8.30;2.20;;;34.80;41.80;;;;;;4957430;28;20074;-62
2022/08/06 07:51:50;;;;;;;10.27;2.20;;;34.80;41.80;;;;;;4953054;28;20852;-62
2022/08/06 07:54:18;;;;;;;7.95;2.35;;;34.80;42.10;;;;;;4952185;28;20066;-61
2022/08/06 07:56:45;;;;;;;9.77;2.17;;;34.70;42.70;;;;;;4935826;28;20518;-61
2022/08/06 07:59:13;;;;;;;9.80;2.00;;;34.70;42.10;;;;;;4968253;28;20085;-61
2022/08/06 08:01:40;;;;;;;7.70;1.90;;;34.60;41.80;;;;;;4937186;28;20075;-63
2022/08/06 08:06:54;;;;;;;10.35;2.20;;;34.40;51.60;;;;;;4970562;28;20084;-63
2022/08/06 08:09:23;;;;;;;13.60;2.38;;;34.50;42.10;;;;;;4951047;28;20426;-65
2022/08/06 08:11:51;;;;;;;8.90;2.13;;;34.60;41.60;;;;;;4969153;28;20430;-62
2022/08/06 08:14:20;;;;;;;5.32;2.05;;;34.50;42.10;;;;;;4970308;28;20100;-62
2022/08/06 08:16:47;;;;;;;9.60;2.15;;;34.50;42.60;;;;;;4952433;28;20076;-62
2022/08/06 08:19:24;;;;;;;13.82;2.10;;;34.40;42.50;;;;;;4966467;28;20430;-62
2022/08/06 08:21:53;;;;;;;14.55;2.17;;;34.40;42.00;;;;;;4971408;28;20535;-61
2022/08/06 08:24:20;;;;;;;9.35;2.40;;;34.40;42.20;;;;;;4938726;28;20078;-63
2022/08/06 08:26:46;;;;;;;7.57;2.20;;;34.30;42.10;;;;;;4935439;28;20112;-62
2022/08/06 08:29:13;;;;;;;9.48;1.95;;;34.30;42.70;;;;;;4967759;28;20553;-62
2022/08/06 08:31:39;;;;;;;8.18;2.08;;;34.30;43.10;;;;;;4951989;28;20555;-63
2022/08/06 08:34:06;;;;;;;9.23;2.30;;;34.20;43.00;;;;;;4972479;28;20075;-62
2022/08/06 08:36:32;;;;;;;7.78;2.30;;;34.20;43.40;;;;;;4952874;28;20083;-64
2022/08/06 08:38:59;;;;;;;15.48;2.47;;;34.10;43.90;;;;;;4952895;28;20067;-63
2022/08/06 08:41:39;;;;;;;9.02;2.28;;;34.20;43.90;;;;;;4938812;28;20448;-61
2022/08/06 08:44:07;;;;;;;13.55;2.20;;;34.10;44.00;;;;;;4940528;28;20539;-63
2022/08/06 08:46:37;;;;;;;13.13;2.60;;;34.10;44.10;;;;;;4956125;28;20072;-64
2022/08/06 08:49:05;;;;;;;12.70;2.45;;;34.00;43.80;;;;;;4955811;28;20179;-63
2022/08/06 08:51:36;;;;;;;10.82;1.80;;;34.00;43.70;;;;;;4954861;28;20079;-63
2022/08/06 08:54:07;;;;;;;6.22;2.35;;;34.00;43.70;;;;;;4972438;28;20098;-63
2022/08/06 08:56:35;;;;;;;13.85;1.80;;;33.90;43.90;;;;;;4954629;28;20075;-61
2022/08/06 08:59:03;;;;;;;8.25;1.83;;;33.90;43.30;;;;;;4941310;28;20087;-62
2022/08/06 09:01:30;;;;;;;4.72;1.80;;;33.90;43.10;;;;;;4956641;28;20077;-63
2022/08/06 09:03:57;;;;;;;7.45;1.80;;;33.90;42.30;;;;;;4955408;28;20084;-62
2022/08/06 09:06:24;;;;;;;11.02;1.90;;;33.90;42.20;;;;;;4955861;28;20670;-63
2022/08/06 09:08:51;;;;;;;11.93;2.03;;;33.80;42.20;;;;;;4954097;28;20094;-63
2022/08/06 09:11:18;;;;;;;10.57;2.03;;;33.80;42.50;;;;;;4955466;28;20160;-63
2022/08/06 09:13:45;;;;;;;11.55;1.95;;;33.80;42.00;;;;;;4972806;28;20465;-63
2022/08/06 09:16:11;;;;;;;12.32;1.60;;;33.70;50.80;;;;;;4939279;28;20137;-63
2022/08/06 09:18:38;;;;;;;9.98;1.90;;;33.80;42.90;;;;;;4944196;28;20091;-62
2022/08/06 09:21:04;;;;;;;10.65;2.05;;;33.70;42.70;;;;;;4956004;28;20104;-63
2022/08/06 09:23:31;;;;;;;10.68;2.10;;;33.70;42.90;;;;;;4955014;28;20728;-63
2022/08/06 09:26:03;;;;;;;7.82;1.77;;;33.70;43.30;;;;;;4969414;28;20072;-62
2022/08/06 09:28:44;;;;;;;10.00;2.08;;;33.70;42.90;;;;;;4955625;28;20134;-64
2022/08/06 09:31:15;;;;;;;10.13;1.77;;;33.60;43.30;;;;;;4955836;28;20171;-62
2022/08/06 09:33:54;;;;;;;7.40;1.85;;;33.60;43.10;;;;;;4955231;28;20570;-63
2022/08/06 09:36:22;;;;;;;6.10;1.77;;;33.60;43.20;;;;;;4971710;28;20076;-62
2022/08/06 09:38:57;;;;;;;10.63;2.10;;;33.60;42.70;;;;;;4961583;28;20100;-63
2022/08/06 09:41:25;;;;;;;12.48;1.73;;;33.60;42.70;;;;;;4954826;28;20079;-64
2022/08/06 09:43:54;;;;;;;11.05;1.80;;;33.60;42.70;;;;;;4955212;28;20066;-63
2022/08/06 09:46:39;;;;;;;5.50;1.60;;;33.50;42.90;;;;;;4971476;28;20073;-63
2022/08/06 09:49:05;;;;;;;11.88;1.70;;;33.50;42.70;;;;;;4968233;28;20735;-63
2022/08/06 09:51:34;;;;;;;8.05;2.13;;;33.50;43.00;;;;;;4938512;28;20081;-63
2022/08/06 09:54:03;;;;;;;12.88;2.28;;;33.50;42.90;;;;;;4954310;28;20159;-63
2022/08/06 09:56:30;;;;;;;6.30;1.80;;;33.50;42.40;;;;;;4955104;28;20423;-62
2022/08/06 09:59:05;;;;;;;5.15;1.90;;;33.60;42.10;;;;;;4972161;28;20089;-63
2022/08/06 10:01:50;;;;;;;16.25;3.13;;;33.60;41.90;;;;;;4938590;28;20203;-62
2022/08/06 10:04:29;;;;;;;4.82;1.92;;;33.60;41.60;;;;;;4954789;28;20074;-64
2022/08/06 10:07:01;;;;;;;7.60;1.73;;;33.60;41.50;;;;;;4972238;28;20081;-63
2022/08/06 10:09:28;;;;;;;8.90;2.08;;;33.60;41.60;;;;;;4954252;28;20531;-62
2022/08/06 10:11:55;;;;;;;9.60;2.28;;;33.60;41.60;;;;;;4954520;28;20462;-62
2022/08/06 10:14:33;;;;;;;5.07;1.88;;;33.60;41.50;;;;;;4972247;28;20112;-62
2022/08/06 10:17:09;;;;;;;9.82;2.17;;;33.60;41.50;;;;;;4972071;28;20114;-63
2022/08/06 10:19:38;;;;;;;3.47;1.92;;;33.60;41.70;;;;;;4954252;28;20064;-62
2022/08/06 10:22:18;;;;;;;6.82;1.70;;;33.60;41.70;;;;;;4954029;28;20555;-62
2022/08/06 10:24:51;;;;;;;8.55;1.92;;;33.60;41.80;;;;;;4938547;28;20181;-64
2022/08/06 10:27:22;;;;;;;6.28;1.80;;;33.50;42.20;;;;;;4971011;28;20074;-64
2022/08/06 10:29:54;;;;;;;8.15;2.22;;;33.50;42.40;;;;;;4954790;28;20565;-62
2022/08/06 10:32:31;;;;;;;5.10;1.63;;;33.40;42.70;;;;;;4954295;28;20119;-62
2022/08/06 10:35:03;;;;;;;9.30;1.63;;;33.40;42.80;;;;;;4938886;28;20065;-62
2022/08/06 10:37:35;;;;;;;6.90;1.55;;;33.40;41.90;;;;;;4954521;28;20074;-62
2022/08/06 10:40:03;;;;;;;4.25;1.55;;;33.30;42.20;;;;;;4939547;28;20135;-62
2022/08/06 10:42:31;;;;;;;5.10;1.70;;;33.30;42.00;;;;;;4941904;28;20554;-63
2022/08/06 10:44:59;;;;;;;6.97;1.60;;;33.30;42.60;;;;;;4970168;28;20077;-61
2022/08/06 10:47:27;;;;;;;5.00;1.52;;;33.20;42.40;;;;;;4953251;28;20077;-65
2022/08/06 10:49:55;;;;;;;4.38;1.73;;;33.20;42.50;;;;;;4954099;28;20072;-63
2022/08/06 10:52:22;;;;;;;4.15;1.80;;;33.10;42.50;;;;;;4951220;28;20092;-61
2022/08/06 10:54:50;;;;;;;7.07;1.77;;;33.20;42.10;;;;;;4969491;28;20084;-64
2022/08/06 10:57:17;;;;;;;6.03;1.65;;;33.10;42.30;;;;;;4936992;28;20156;-63
2022/08/06 10:59:45;;;;;;;8.20;2.00;;;33.10;42.50;;;;;;4954449;28;20082;-62
2022/08/06 11:02:36;;;;;;;9.10;2.10;;;33.10;42.90;;;;;;4953986;28;20074;-63
2022/08/06 11:05:14;;;;;;;6.53;1.60;;;33.10;42.60;;;;;;4969440;28;20092;-63
2022/08/06 11:07:50;;;;;;;11.77;2.10;;;33.00;42.80;;;;;;4937269;28;20078;-62
2022/08/06 11:10:34;;;;;;;;;;;33.00;43.20;;;;;;4939086;28;20137;-63
2022/08/06 11:13:10;;;;;;;9.82;1.88;;;33.00;43.60;;;;;;4970204;28;20043;-60
2022/08/06 11:15:37;;;;;;;7.67;1.63;;;32.90;43.20;;;;;;4953066;28;20081;-63
2022/08/06 11:18:08;;;;;;;5.65;2.00;;;32.80;43.50;;;;;;4953265;28;20405;-62
2022/08/06 11:20:43;;;;;;;5.88;2.08;;;32.80;43.90;;;;;;4938619;28;20090;-60
2022/08/06 11:23:12;;;;;;;9.07;1.83;;;32.80;44.20;;;;;;4953028;28;20075;-62
2022/08/06 11:25:44;;;;;;;6.75;1.83;;;32.70;43.90;;;;;;4954605;28;20149;-63
2022/08/06 11:28:15;;;;;;;6.85;1.92;;;32.70;43.10;;;;;;4939062;28;20092;-62
2022/08/06 11:30:44;;;;;;;8.07;1.60;;;32.70;43.30;;;;;;4953524;28;20082;-62
2022/08/06 11:33:13;;;;;;;8.13;2.22;;;32.60;43.90;;;;;;4958687;28;20136;-62
2022/08/06 11:35:43;;;;;;;5.70;1.92;;;32.60;44.00;;;;;;4937527;28;20078;-63
2022/08/06 11:38:35;;;;;;;5.32;1.83;;;32.60;43.90;;;;;;4950257;28;20094;-63
2022/08/06 11:41:10;;;;;;;4.80;1.83;;;32.60;44.50;;;;;;4940513;28;20435;-63
2022/08/06 11:43:51;;;;;;;6.07;1.70;;;32.50;44.40;;;;;;4953246;28;20167;-62
2022/08/06 11:46:25;;;;;;;7.78;1.80;;;32.50;44.30;;;;;;4958055;28;20070;-62
2022/08/06 11:49:03;;;;;;;5.35;1.88;;;32.40;44.20;;;;;;4938765;28;20077;-63
2022/08/06 11:51:43;;;;;;;6.28;1.60;;;32.30;65.10;;;;;;4951575;28;20163;-63
2022/08/06 11:54:13;;;;;;;9.18;2.00;;;32.80;66.10;;;;;;4952731;28;20051;-63
2022/08/06 11:57:06;;;;;;;5.32;1.65;;;32.30;44.70;;;;;;4937239;28;20059;-63
2022/08/06 11:59:47;;;;;;;6.90;1.88;;;32.30;45.00;;;;;;4944896;28;20183;-63
2022/08/06 12:02:37;;;;;;;10.02;2.20;;;32.30;44.40;;;;;;4944220;28;20078;-64
2022/08/06 12:05:04;;;;;;;5.10;2.00;;;32.30;44.60;;;;;;4952146;28;20444;-62
2022/08/06 12:07:34;;;;;;;5.53;1.90;;;32.20;44.30;;;;;;4956043;28;20528;-64
2022/08/06 12:10:06;;;;;;;6.05;2.00;;;31.80;51.00;;;;;;4953091;28;20110;-63
2022/08/06 12:12:45;;;;;;;5.18;2.03;;;32.10;44.60;;;;;;4968547;28;20663;-63
2022/08/06 12:15:22;;;;;;;9.27;2.33;;;32.20;45.60;;;;;;4951771;28;20486;-62
2022/08/06 12:17:55;;;;;;;5.43;2.05;;;32.10;44.70;;;;;;4949741;28;20116;-64
2022/08/06 12:20:36;;;;;;;8.02;2.13;;;32.10;45.20;;;;;;4951322;28;20081;-64
2022/08/06 12:23:05;;;;;;;7.35;1.60;;;32.10;44.70;;;;;;4951102;28;20081;-63
2022/08/06 12:25:38;;;;;;;10.20;2.03;;;32.10;45.40;;;;;;4935976;28;20085;-62
2022/08/06 12:28:07;;;;;;;7.47;2.05;;;32.10;45.10;;;;;;4952497;28;20096;-62
2022/08/06 12:30:44;;;;;;;4.60;1.70;;;32.00;45.40;;;;;;4969620;28;20159;-65
2022/08/06 12:33:12;;;;;;;6.13;2.00;;;32.00;45.80;;;;;;4952047;28;20097;-63
2022/08/06 12:36:00;;;;;;;9.70;2.03;;;31.90;45.60;;;;;;4968350;28;20119;-63
2022/08/06 12:38:31;;;;;;;8.43;2.03;;;31.90;45.00;;;;;;4967904;28;20550;-62
2022/08/06 12:41:05;;;;;;;4.13;1.83;;;31.90;44.70;;;;;;4952269;28;20094;-62
2022/08/06 12:43:33;;;;;;;8.00;2.03;;;31.90;45.70;;;;;;4937077;28;20523;-62
2022/08/06 12:46:03;;;;;;;8.35;2.45;;;31.90;46.00;;;;;;4951913;28;20088;-62
2022/08/06 12:48:30;;;;;;;5.00;2.17;;;31.90;46.20;;;;;;4973556;28;20075;-63
2022/08/06 12:51:18;;;;;;;6.88;1.70;;;31.80;46.50;;;;;;4949777;28;20070;-64
2022/08/06 12:53:51;;;;;;;6.32;2.00;;;31.80;46.50;;;;;;4967459;28;20090;-63
2022/08/06 12:56:22;;;;;;;8.32;2.00;;;31.70;45.90;;;;;;4967698;28;20495;-62
2022/08/06 12:58:49;;;;;;;7.90;2.00;;;31.70;45.90;;;;;;4956284;28;20454;-61
2022/08/06 13:01:18;;;;;;;8.80;2.33;;;31.70;46.20;;;;;;4953250;28;20157;-65
2022/08/06 13:03:48;;;;;;;5.22;1.98;;;31.70;46.20;;;;;;4969489;28;20074;-64
2022/08/06 13:06:18;;;;;;;7.90;1.90;;;31.70;46.10;;;;;;4952222;28;20105;-64
2022/08/06 13:08:51;;;;;;;11.23;1.90;;;31.70;45.50;;;;;;4952000;28;20080;-64